Time;durP1;ratioP1;P1;durP2;ratioP2;P2;SDS_P1;SDS_P2;PMS_P1;PMS_P2;Temp;Humidity;BMP_temperature;BMP_pressure;BME280_temperature;BME280_humidity;BME280_pressure;Samples;Min_cycle;Max_cycle;Signal;HPM_P1;HPM_P2
2023/09/20 00:00:14;;;;;;;11.52;3.65;;;;;;;;;;5078775;28;20391;-68
2023/09/20 00:02:41;;;;;;;13.30;3.80;;;;;;;;;;5079022;28;21771;-68
2023/09/20 00:05:26;;;;;;;9.50;3.85;;;;;;;;;;5079043;28;20093;-68
2023/09/20 00:07:56;;;;;;;9.80;3.85;;;;;;;;;;5079555;28;20093;-68
2023/09/20 00:10:26;;;;;;;10.00;3.83;;;;;;;;;;5080501;28;20028;-68
2023/09/20 00:12:53;;;;;;;14.43;4.25;;;;;;;;;;5079491;28;20030;-67
2023/09/20 00:15:19;;;;;;;11.48;4.22;;;;;;;;;;5080298;28;20067;-67
2023/09/20 00:17:45;;;;;;;14.88;3.80;;;;;;;;;;5079784;28;20421;-67
2023/09/20 00:20:14;;;;;;;10.30;3.47;;;;;;;;;;5079624;28;20081;-67
2023/09/20 00:22:44;;;;;;;14.70;4.55;;;;;;;;;;5079019;28;20036;-68
2023/09/20 00:25:11;;;;;;;10.57;3.72;;;;;;;;;;5079135;28;20032;-67
2023/09/20 00:27:38;;;;;;;17.45;4.93;;;;;;;;;;5079964;28;20024;-67
2023/09/20 00:30:06;;;;;;;12.65;3.97;;;;;;;;;;5079456;28;20166;-66
2023/09/20 00:32:32;;;;;;;11.73;4.38;;;;;;;;;;5079216;28;20028;-67
2023/09/20 00:34:58;;;;;;;13.98;4.90;;;;;;;;;;5079683;28;20169;-65
2023/09/20 00:37:24;;;;;;;11.52;3.92;;;;;;;;;;5079026;28;20031;-67
2023/09/20 00:39:50;;;;;;;11.18;3.58;;;;;;;;;;5079957;28;20040;-67
2023/09/20 00:42:17;;;;;;;10.73;4.32;;;;;;;;;;5079284;28;20036;-67
2023/09/20 00:44:43;;;;;;;10.73;3.70;;;;;;;;;;5079301;28;20066;-68
2023/09/20 00:47:11;;;;;;;14.85;3.97;;;;;;;;;;5080558;28;20134;-68
2023/09/20 00:49:37;;;;;;;10.77;4.38;;;;;;;;;;5079372;28;20371;-67
2023/09/20 00:52:04;;;;;;;13.75;4.43;;;;;;;;;;5079092;28;20054;-67
2023/09/20 00:54:30;;;;;;;11.48;4.18;;;;;;;;;;5079271;28;20124;-67
2023/09/20 00:56:56;;;;;;;10.45;4.32;;;;;;;;;;5079386;28;20110;-67
2023/09/20 00:59:22;;;;;;;8.48;3.55;;;;;;;;;;5079052;28;20046;-67
2023/09/20 01:01:49;;;;;;;11.15;4.00;;;;;;;;;;5079997;28;20040;-68
2023/09/20 01:04:16;;;;;;;9.65;4.28;;;;;;;;;;5078380;28;21713;-68
2023/09/20 01:06:42;;;;;;;13.32;4.88;;;;;;;;;;5079490;28;20851;-67
2023/09/20 01:09:09;;;;;;;10.20;4.10;;;;;;;;;;5080344;28;20024;-67
2023/09/20 01:11:35;;;;;;;13.30;4.75;;;;;;;;;;5082842;27;20024;-67
2023/09/20 01:14:02;;;;;;;9.77;3.88;;;;;;;;;;5082989;28;20542;-67
2023/09/20 01:16:28;;;;;;;10.20;4.28;;;;;;;;;;5082992;27;20046;-67
2023/09/20 01:18:54;;;;;;;11.23;4.10;;;;;;;;;;5082163;27;20077;-68
2023/09/20 01:21:20;;;;;;;13.43;4.63;;;;;;;;;;5082743;27;20065;-68
2023/09/20 01:23:49;;;;;;;11.15;4.53;;;;;;;;;;5082813;28;20024;-67
2023/09/20 01:26:16;;;;;;;11.82;4.65;;;;;;;;;;5083179;28;20132;-67
2023/09/20 01:28:42;;;;;;;10.65;4.38;;;;;;;;;;5083182;28;20040;-68
2023/09/20 01:31:08;;;;;;;12.48;4.55;;;;;;;;;;5083319;28;20020;-68
2023/09/20 01:33:35;;;;;;;14.23;4.22;;;;;;;;;;5083060;28;20020;-67
2023/09/20 01:36:04;;;;;;;15.10;4.57;;;;;;;;;;5083582;28;20565;-68
2023/09/20 01:38:31;;;;;;;11.82;4.03;;;;;;;;;;5083257;28;20046;-68
2023/09/20 01:40:57;;;;;;;12.48;4.18;;;;;;;;;;5082807;28;20109;-68
2023/09/20 01:43:24;;;;;;;12.30;4.30;;;;;;;;;;5082989;28;20049;-67
2023/09/20 01:45:51;;;;;;;16.85;4.55;;;;;;;;;;5083225;28;20036;-68
2023/09/20 01:48:17;;;;;;;12.45;4.13;;;;;;;;;;5082355;28;20058;-67
2023/09/20 01:50:43;;;;;;;16.10;4.72;;;;;;;;;;5081393;28;20032;-67
2023/09/20 01:53:10;;;;;;;11.70;4.47;;;;;;;;;;5083103;28;20051;-67
2023/09/20 01:55:37;;;;;;;11.18;3.75;;;;;;;;;;5081904;28;20031;-68
2023/09/20 01:58:05;;;;;;;17.38;4.35;;;;;;;;;;5083095;28;20051;-67
2023/09/20 02:00:40;;;;;;;13.70;3.80;;;;;;;;;;5081785;28;20044;-67
2023/09/20 02:03:16;;;;;;;12.55;3.30;;;;;;;;;;5072102;28;20038;-67
2023/09/20 02:05:46;;;;;;;11.13;3.90;;;;;;;;;;5082082;27;20071;-67
2023/09/20 02:08:12;;;;;;;11.57;3.40;;;;;;;;;;5082487;28;20044;-68
2023/09/20 02:10:38;;;;;;;13.93;3.70;;;;;;;;;;5081712;28;20038;-67
2023/09/20 02:13:04;;;;;;;10.93;3.58;;;;;;;;;;5082316;28;20652;-67
2023/09/20 02:15:31;;;;;;;9.77;3.30;;;;;;;;;;5081663;28;20028;-67
2023/09/20 02:17:58;;;;;;;10.40;3.80;;;;;;;;;;5081713;27;20066;-67
2023/09/20 02:20:33;;;;;;;12.75;3.13;;;;;;;;;;5080500;28;20136;-67
2023/09/20 02:22:59;;;;;;;12.35;3.60;;;;;;;;;;5081491;28;20036;-68
2023/09/20 02:25:26;;;;;;;12.80;4.05;;;;;;;;;;5081616;28;20039;-67
2023/09/20 02:27:57;;;;;;;13.23;3.78;;;;;;;;;;5080741;28;20089;-67
2023/09/20 02:30:36;;;;;;;12.07;3.85;;;;;;;;;;5080138;28;20091;-67
2023/09/20 02:33:06;;;;;;;11.35;4.10;;;;;;;;;;5081383;28;21084;-67
2023/09/20 02:35:32;;;;;;;9.40;3.30;;;;;;;;;;5081390;28;20032;-67
2023/09/20 02:37:59;;;;;;;9.32;3.28;;;;;;;;;;5081791;28;20032;-67
2023/09/20 02:40:29;;;;;;;9.88;3.88;;;;;;;;;;5080192;27;20039;-67
2023/09/20 02:42:58;;;;;;;9.20;3.20;;;;;;;;;;5080582;28;20322;-67
2023/09/20 02:45:25;;;;;;;11.02;3.53;;;;;;;;;;5080270;28;20440;-67
2023/09/20 02:47:52;;;;;;;11.77;3.58;;;;;;;;;;5080373;28;20044;-67
2023/09/20 02:50:22;;;;;;;10.68;3.40;;;;;;;;;;5079863;28;21816;-67
2023/09/20 02:52:49;;;;;;;10.02;3.35;;;;;;;;;;5081335;27;20990;-67
2023/09/20 02:55:17;;;;;;;11.80;3.97;;;;;;;;;;5081330;27;20062;-67
2023/09/20 02:57:43;;;;;;;9.88;3.45;;;;;;;;;;5080939;27;20890;-67
2023/09/20 03:00:14;;;;;;;11.52;3.05;;;;;;;;;;5080243;28;20105;-67
2023/09/20 03:02:44;;;;;;;9.35;3.35;;;;;;;;;;5080834;28;20039;-67
2023/09/20 03:05:11;;;;;;;10.52;3.47;;;;;;;;;;5081367;28;20036;-67
2023/09/20 03:07:38;;;;;;;8.52;2.90;;;;;;;;;;5079674;28;20123;-67
2023/09/20 03:10:05;;;;;;;8.68;3.05;;;;;;;;;;5081122;28;20020;-67
2023/09/20 03:12:33;;;;;;;10.70;3.42;;;;;;;;;;5081089;28;20028;-67
2023/09/20 03:15:04;;;;;;;10.35;2.97;;;;;;;;;;5080443;27;20074;-67
2023/09/20 03:17:31;;;;;;;11.30;3.85;;;;;;;;;;5081248;28;20032;-67
2023/09/20 03:19:58;;;;;;;8.40;3.15;;;;;;;;;;5080586;28;20024;-67
2023/09/20 03:22:24;;;;;;;11.63;3.10;;;;;;;;;;5064368;28;20059;-67
2023/09/20 03:24:51;;;;;;;14.45;3.50;;;;;;;;;;5080975;28;20024;-67
2023/09/20 03:27:17;;;;;;;14.57;4.20;;;;;;;;;;5080340;28;20028;-67
2023/09/20 03:29:46;;;;;;;12.32;3.20;;;;;;;;;;5080859;28;20031;-67
2023/09/20 03:32:15;;;;;;;10.10;3.40;;;;;;;;;;5079902;28;20512;-67
2023/09/20 03:34:41;;;;;;;7.93;2.85;;;;;;;;;;5080470;28;20074;-67
2023/09/20 03:37:10;;;;;;;8.50;3.28;;;;;;;;;;5079956;27;20119;-67
2023/09/20 03:39:40;;;;;;;12.63;3.50;;;;;;;;;;5080332;28;20031;-67
2023/09/20 03:42:09;;;;;;;6.82;2.92;;;;;;;;;;5079759;28;20031;-67
2023/09/20 03:44:35;;;;;;;12.55;3.55;;;;;;;;;;5080389;28;20432;-67
2023/09/20 03:47:01;;;;;;;6.82;2.90;;;;;;;;;;5079919;28;20039;-67
2023/09/20 03:49:27;;;;;;;11.45;3.47;;;;;;;;;;5078204;28;20043;-67
2023/09/20 03:51:54;;;;;;;8.05;3.15;;;;;;;;;;5077441;28;20460;-67
2023/09/20 03:54:20;;;;;;;10.85;3.45;;;;;;;;;;5079414;28;20600;-67
2023/09/20 03:56:46;;;;;;;17.38;4.00;;;;;;;;;;5059301;28;20179;-67
2023/09/20 03:59:12;;;;;;;9.80;3.13;;;;;;;;;;5080174;28;20394;-67
2023/09/20 04:01:39;;;;;;;16.35;3.80;;;;;;;;;;5079051;28;20024;-67
2023/09/20 04:04:05;;;;;;;11.32;3.72;;;;;;;;;;5080999;28;20035;-67
2023/09/20 04:06:31;;;;;;;8.27;3.40;;;;;;;;;;5079440;28;20127;-67
2023/09/20 04:08:59;;;;;;;11.82;3.20;;;;;;;;;;5069333;27;20517;-67
2023/09/20 04:11:25;;;;;;;10.85;3.40;;;;;;;;;;5080703;28;20890;-68
2023/09/20 04:13:53;;;;;;;10.65;3.63;;;;;;;;;;5080109;28;20462;-67
2023/09/20 04:16:22;;;;;;;8.50;3.28;;;;;;;;;;5079859;28;20040;-67
2023/09/20 04:18:50;;;;;;;11.20;4.00;;;;;;;;;;5080450;28;20036;-67
2023/09/20 04:21:16;;;;;;;10.57;3.45;;;;;;;;;;5079597;28;20789;-67
2023/09/20 04:23:42;;;;;;;11.05;3.65;;;;;;;;;;5079120;28;21279;-67
2023/09/20 04:26:08;;;;;;;15.32;4.03;;;;;;;;;;5080367;28;20040;-68
2023/09/20 04:28:34;;;;;;;16.85;3.88;;;;;;;;;;5079412;28;20210;-67
2023/09/20 04:31:01;;;;;;;13.32;3.60;;;;;;;;;;5080105;28;20062;-67
2023/09/20 04:33:27;;;;;;;8.27;3.28;;;;;;;;;;5080252;28;20047;-67
2023/09/20 04:35:57;;;;;;;9.95;3.58;;;;;;;;;;5079679;28;20441;-67
2023/09/20 04:38:23;;;;;;;12.90;4.00;;;;;;;;;;5079897;28;20069;-67
2023/09/20 04:40:49;;;;;;;15.85;3.75;;;;;;;;;;5078608;28;20044;-67
2023/09/20 04:43:15;;;;;;;10.77;3.88;;;;;;;;;;5079736;28;20487;-67
2023/09/20 04:45:41;;;;;;;15.60;3.38;;;;;;;;;;5083105;28;20371;-67
2023/09/20 04:48:08;;;;;;;13.63;3.80;;;;;;;;;;5083165;28;20055;-67
2023/09/20 04:50:35;;;;;;;10.98;3.50;;;;;;;;;;5042650;28;21716;-67
2023/09/20 04:53:01;;;;;;;12.13;3.40;;;;;;;;;;5043316;28;20024;-67
2023/09/20 04:55:27;;;;;;;10.35;3.58;;;;;;;;;;5041518;28;20116;-67
2023/09/20 04:57:55;;;;;;;12.90;3.25;;;;;;;;;;5042139;28;20052;-67
2023/09/20 05:00:26;;;;;;;10.05;3.17;;;;;;;;;;5042749;28;20040;-67
2023/09/20 05:02:52;;;;;;;12.88;3.25;;;;;;;;;;5042654;28;20037;-66
2023/09/20 05:05:18;;;;;;;12.15;3.53;;;;;;;;;;5043210;28;20438;-66
2023/09/20 05:07:44;;;;;;;9.50;3.25;;;;;;;;;;5040777;28;20137;-67
2023/09/20 05:10:10;;;;;;;8.50;3.40;;;;;;;;;;5042644;28;20041;-67
2023/09/20 05:12:38;;;;;;;12.38;3.22;;;;;;;;;;5042841;28;20055;-67
2023/09/20 05:15:04;;;;;;;12.18;3.55;;;;;;;;;;5041776;28;20753;-67
2023/09/20 05:17:30;;;;;;;8.55;3.47;;;;;;;;;;5042833;28;20928;-67
2023/09/20 05:19:58;;;;;;;11.30;3.08;;;;;;;;;;5042043;28;20028;-67
2023/09/20 05:22:24;;;;;;;10.27;3.40;;;;;;;;;;5041578;28;20017;-67
2023/09/20 05:24:50;;;;;;;8.85;3.47;;;;;;;;;;5048697;28;20031;-67
2023/09/20 05:27:17;;;;;;;11.50;3.63;;;;;;;;;;5040974;28;20055;-67
2023/09/20 05:29:43;;;;;;;10.65;3.30;;;;;;;;;;5041829;28;20037;-67
2023/09/20 05:32:09;;;;;;;14.57;4.00;;;;;;;;;;5042308;28;20029;-68
2023/09/20 05:34:36;;;;;;;13.35;3.42;;;;;;;;;;5042487;28;20040;-67
2023/09/20 05:37:02;;;;;;;10.80;3.03;;;;;;;;;;5042603;28;20045;-66
2023/09/20 05:39:28;;;;;;;12.32;3.80;;;;;;;;;;5042230;28;20040;-65
2023/09/20 05:41:54;;;;;;;10.93;3.15;;;;;;;;;;5041337;28;20064;-65
2023/09/20 05:44:21;;;;;;;6.53;2.90;;;;;;;;;;5040591;28;20529;-65
2023/09/20 05:46:47;;;;;;;10.02;3.38;;;;;;;;;;5042637;28;20091;-65
2023/09/20 05:49:13;;;;;;;12.52;3.67;;;;;;;;;;5064726;28;20610;-66
2023/09/20 05:51:39;;;;;;;11.25;3.80;;;;;;;;;;5062376;28;20054;-67
2023/09/20 05:54:05;;;;;;;11.50;3.15;;;;;;;;;;5061907;28;20036;-66
2023/09/20 05:56:31;;;;;;;10.40;3.88;;;;;;;;;;5062161;28;20036;-66
2023/09/20 05:59:00;;;;;;;11.60;3.30;;;;;;;;;;5061676;28;20499;-66
2023/09/20 06:01:30;;;;;;;12.98;2.95;;;;;;;;;;5058950;28;20063;-66
2023/09/20 06:03:58;;;;;;;11.80;3.10;;;;;;;;;;5062197;28;20040;-66
2023/09/20 06:06:25;;;;;;;10.50;2.80;;;;;;;;;;5061261;28;20835;-66
2023/09/20 06:08:51;;;;;;;11.57;3.25;;;;;;;;;;5061191;28;20155;-67
2023/09/20 06:11:18;;;;;;;11.70;3.20;;;;;;;;;;5061726;28;20141;-66
2023/09/20 06:13:44;;;;;;;11.82;2.90;;;;;;;;;;5061575;28;20036;-66
2023/09/20 06:16:11;;;;;;;11.20;3.78;;;;;;;;;;5060846;28;20039;-66
2023/09/20 06:18:37;;;;;;;9.05;3.35;;;;;;;;;;5061058;28;20051;-66
2023/09/20 06:21:03;;;;;;;13.52;3.90;;;;;;;;;;5062296;28;20035;-66
2023/09/20 06:23:29;;;;;;;11.88;3.63;;;;;;;;;;5060931;28;20049;-66
2023/09/20 06:25:55;;;;;;;11.52;2.97;;;;;;;;;;5061055;28;20036;-66
2023/09/20 06:28:24;;;;;;;10.23;2.55;;;;;;;;;;5061231;28;20056;-66
2023/09/20 06:30:50;;;;;;;9.15;3.30;;;;;;;;;;5077222;28;20031;-66
2023/09/20 06:33:16;;;;;;;9.05;2.83;;;;;;;;;;5061152;28;20111;-66
2023/09/20 06:35:45;;;;;;;7.57;2.70;;;;;;;;;;5061066;28;20105;-66
2023/09/20 06:38:11;;;;;;;9.88;2.92;;;;;;;;;;5061126;28;20024;-66
2023/09/20 06:40:40;;;;;;;8.05;2.60;;;;;;;;;;5061286;28;20033;-66
2023/09/20 06:43:07;;;;;;;11.75;3.25;;;;;;;;;;5060807;28;20033;-66
2023/09/20 06:45:33;;;;;;;12.73;3.05;;;;;;;;;;5061157;28;20080;-66
2023/09/20 06:48:00;;;;;;;6.90;2.60;;;;;;;;;;5059745;28;20101;-66
2023/09/20 06:50:26;;;;;;;7.22;2.33;;;;;;;;;;5080113;28;20043;-66
2023/09/20 06:52:54;;;;;;;8.93;2.30;;;;;;;;;;5080975;28;20027;-66
2023/09/20 06:55:20;;;;;;;9.30;2.67;;;;;;;;;;5080686;28;20053;-66
2023/09/20 06:57:47;;;;;;;8.75;2.38;;;;;;;;;;5080808;28;20974;-65
2023/09/20 07:02:46;;;;;;;7.90;2.63;;;;;;;;;;5081032;28;20036;-66
2023/09/20 07:05:13;;;;;;;10.10;2.70;;;;;;;;;;5055354;28;20166;-65
2023/09/20 07:07:42;;;;;;;9.30;2.78;;;;;;;;;;5072541;28;20237;-66
2023/09/20 07:10:09;;;;;;;7.40;2.42;;;;;;;;;;5073944;28;20566;-66
2023/09/20 07:12:38;;;;;;;8.75;2.58;;;;;;;;;;5072373;28;20031;-66
2023/09/20 07:15:06;;;;;;;8.02;2.40;;;;;;;;;;5074157;28;20027;-66
2023/09/20 07:17:32;;;;;;;8.77;2.70;;;;;;;;;;5073347;28;20072;-66
2023/09/20 07:19:58;;;;;;;8.90;2.63;;;;;;;;;;5074069;28;20024;-66
2023/09/20 07:22:28;;;;;;;6.57;2.40;;;;;;;;;;5073023;28;20507;-66
2023/09/20 07:24:56;;;;;;;8.10;2.80;;;;;;;;;;5072881;28;20028;-66
2023/09/20 07:27:23;;;;;;;13.35;2.92;;;;;;;;;;5073526;28;20028;-66
2023/09/20 07:29:51;;;;;;;7.07;2.95;;;;;;;;;;5073161;28;20035;-66
2023/09/20 07:32:17;;;;;;;10.70;2.90;;;;;;;;;;5073651;28;20055;-66
2023/09/20 07:34:47;;;;;;;8.43;2.60;;;;;;;;;;5074385;28;20082;-66
2023/09/20 07:37:13;;;;;;;9.13;2.70;;;;;;;;;;5074440;28;20043;-66
2023/09/20 07:39:39;;;;;;;12.10;2.88;;;;;;;;;;5072393;28;20066;-66
2023/09/20 07:42:05;;;;;;;10.73;2.55;;;;;;;;;;5071115;28;20501;-66
2023/09/20 07:44:35;;;;;;;11.38;3.22;;;;;;;;;;5053299;28;20093;-66
2023/09/20 07:47:03;;;;;;;5.75;2.60;;;;;;;;;;5071956;28;20040;-66
2023/09/20 07:49:29;;;;;;;13.20;3.55;;;;;;;;;;5070982;27;20811;-65
2023/09/20 07:51:55;;;;;;;8.50;2.65;;;;;;;;;;5072865;28;20038;-66
2023/09/20 07:54:22;;;;;;;9.35;2.78;;;;;;;;;;5074423;28;21280;-66
2023/09/20 07:56:52;;;;;;;12.75;3.08;;;;;;;;;;5074578;28;20044;-66
2023/09/20 07:59:23;;;;;;;11.57;3.80;;;;;;;;;;5074331;28;20039;-66
2023/09/20 08:01:52;;;;;;;9.27;3.15;;;;;;;;;;5074396;28;20116;-66
2023/09/20 08:04:18;;;;;;;11.15;3.50;;;;;;;;;;5074291;28;20036;-66
2023/09/20 08:06:45;;;;;;;11.30;3.17;;;;;;;;;;5054997;28;20040;-67
2023/09/20 08:09:11;;;;;;;10.63;3.25;;;;;;;;;;5072479;28;20030;-66
2023/09/20 08:11:37;;;;;;;9.82;3.20;;;;;;;;;;5072769;28;20135;-66
2023/09/20 08:14:04;;;;;;;8.90;2.83;;;;;;;;;;5072313;28;20038;-66
2023/09/20 08:16:33;;;;;;;9.10;3.22;;;;;;;;;;5072493;28;20036;-66
2023/09/20 08:21:42;;;;;;;15.00;3.35;;;;;;;;;;5076028;28;20039;-66
2023/09/20 09:00:21;;;;;;;8.13;3.50;;;;;;;;;;5075072;27;20042;-66
2023/09/20 09:02:53;;;;;;;6.97;2.78;;;;;;;;;;5076425;28;20034;-66
2023/09/20 09:05:20;;;;;;;10.57;3.40;;;;;;;;;;5075351;28;20035;-66
2023/09/20 09:07:47;;;;;;;9.05;3.33;;;;;;;;;;5074846;28;20723;-66
2023/09/20 09:10:13;;;;;;;9.75;3.45;;;;;;;;;;5075458;27;20061;-66
2023/09/20 09:12:40;;;;;;;8.15;3.25;;;;;;;;;;5075348;28;20036;-66
2023/09/20 09:15:08;;;;;;;9.07;3.28;;;;;;;;;;5075059;28;20208;-66
2023/09/20 09:17:39;;;;;;;8.52;3.55;;;;;;;;;;5074921;28;20038;-66
2023/09/20 09:20:08;;;;;;;8.93;3.15;;;;;;;;;;5079699;28;20024;-66
2023/09/20 09:22:35;;;;;;;9.20;3.40;;;;;;;;;;5082056;28;20462;-66
2023/09/20 09:25:01;;;;;;;11.70;3.67;;;;;;;;;;5080654;28;20024;-66
2023/09/20 09:27:30;;;;;;;8.32;3.30;;;;;;;;;;5078939;28;20051;-66
2023/09/20 09:29:58;;;;;;;8.48;3.28;;;;;;;;;;5077595;28;20047;-66
2023/09/20 09:32:24;;;;;;;7.60;3.40;;;;;;;;;;5080381;28;20024;-66
2023/09/20 09:34:50;;;;;;;7.80;3.08;;;;;;;;;;5080287;28;20017;-66
2023/09/20 09:37:17;;;;;;;9.65;3.70;;;;;;;;;;5081705;28;20032;-66
2023/09/20 09:39:59;;;;;;;8.27;3.60;;;;;;;;;;5082227;28;20107;-67
2023/09/20 09:42:26;;;;;;;9.07;3.60;;;;;;;;;;5082755;28;20528;-66
2023/09/20 09:44:52;;;;;;;8.57;3.47;;;;;;;;;;5082250;28;20039;-65
2023/09/20 09:47:18;;;;;;;8.30;3.53;;;;;;;;;;5082592;28;20067;-66
2023/09/20 09:49:46;;;;;;;8.45;3.63;;;;;;;;;;5082857;28;20922;-66
2023/09/20 09:52:12;;;;;;;9.05;4.07;;;;;;;;;;5082301;28;20087;-66
2023/09/20 09:54:39;;;;;;;8.75;3.97;;;;;;;;;;5082427;28;20081;-66
2023/09/20 09:57:05;;;;;;;9.15;4.03;;;;;;;;;;5082449;28;20032;-66
2023/09/20 09:59:31;;;;;;;10.05;3.63;;;;;;;;;;5080789;28;20043;-66
2023/09/20 10:02:00;;;;;;;7.63;3.75;;;;;;;;;;5081303;28;21081;-66
2023/09/20 10:04:26;;;;;;;10.57;4.15;;;;;;;;;;5080136;28;20028;-66
2023/09/20 10:06:59;;;;;;;8.95;4.00;;;;;;;;;;5080338;28;20029;-66
2023/09/20 10:09:28;;;;;;;7.75;4.18;;;;;;;;;;5080663;28;20323;-66
2023/09/20 10:11:54;;;;;;;7.30;3.92;;;;;;;;;;5080486;28;20224;-66
2023/09/20 10:14:22;;;;;;;7.03;4.10;;;;;;;;;;5081401;28;20028;-67
2023/09/20 10:16:49;;;;;;;8.43;4.10;;;;;;;;;;5079765;28;20639;-66
2023/09/20 10:19:16;;;;;;;12.65;4.53;;;;;;;;;;5079659;27;20032;-66
2023/09/20 10:22:01;;;;;;;7.90;4.00;;;;;;;;;;5082113;28;20035;-66
2023/09/20 10:24:28;;;;;;;8.70;4.43;;;;;;;;;;5080954;27;20032;-67
2023/09/20 10:26:57;;;;;;;8.13;3.80;;;;;;;;;;5080829;28;20043;-66
2023/09/20 10:29:24;;;;;;;6.43;3.55;;;;;;;;;;5081239;28;20024;-66
2023/09/20 10:31:50;;;;;;;11.52;3.70;;;;;;;;;;5080679;28;20115;-66
2023/09/20 10:34:21;;;;;;;6.68;3.88;;;;;;;;;;5081071;28;20039;-66
2023/09/20 10:36:53;;;;;;;6.53;3.55;;;;;;;;;;5079962;28;20078;-66
2023/09/20 10:39:19;;;;;;;9.53;4.20;;;;;;;;;;5081264;28;20047;-66
2023/09/20 10:41:46;;;;;;;11.02;4.43;;;;;;;;;;5082325;28;20272;-66
2023/09/20 10:44:27;;;;;;;11.73;4.07;;;;;;;;;;5081950;28;20035;-66
2023/09/20 10:46:54;;;;;;;6.38;3.38;;;;;;;;;;5082239;28;20034;-66
2023/09/20 10:49:41;;;;;;;7.47;3.78;;;;;;;;;;5082108;28;20047;-66
2023/09/20 10:52:08;;;;;;;10.15;3.63;;;;;;;;;;5081675;28;20090;-66
2023/09/20 10:54:39;;;;;;;7.18;3.95;;;;;;;;;;5080844;27;21720;-66
2023/09/20 10:57:07;;;;;;;6.85;3.53;;;;;;;;;;5068084;28;20122;-67
2023/09/20 10:59:34;;;;;;;6.85;3.50;;;;;;;;;;5080655;28;20043;-66
2023/09/20 11:02:08;;;;;;;6.95;3.40;;;;;;;;;;5081820;28;20198;-66
2023/09/20 11:04:34;;;;;;;7.03;4.13;;;;;;;;;;5081223;28;21318;-66
2023/09/20 11:07:02;;;;;;;7.68;3.78;;;;;;;;;;5080713;28;20032;-66
2023/09/20 11:09:31;;;;;;;7.82;3.30;;;;;;;;;;5080832;28;20036;-66
2023/09/20 11:12:06;;;;;;;6.88;3.10;;;;;;;;;;5080592;28;20042;-66
2023/09/20 11:14:33;;;;;;;6.75;3.42;;;;;;;;;;5081376;27;20040;-66
2023/09/20 11:16:59;;;;;;;6.82;3.10;;;;;;;;;;5080945;28;20032;-66
2023/09/20 11:19:26;;;;;;;8.02;2.97;;;;;;;;;;5080289;28;20032;-67
2023/09/20 11:21:53;;;;;;;8.15;3.13;;;;;;;;;;5081081;28;20074;-66
2023/09/20 11:24:19;;;;;;;6.43;2.85;;;;;;;;;;5081110;28;20159;-66
2023/09/20 11:26:49;;;;;;;6.75;2.53;;;;;;;;;;5079279;28;20655;-66
2023/09/20 11:29:16;;;;;;;5.70;2.22;;;;;;;;;;5080479;28;20035;-66
2023/09/20 11:31:45;;;;;;;5.75;2.38;;;;;;;;;;5079798;28;20028;-66
2023/09/20 11:34:12;;;;;;;6.00;2.50;;;;;;;;;;5080456;28;20052;-66
2023/09/20 11:36:38;;;;;;;4.15;2.17;;;;;;;;;;5080303;28;20031;-67
2023/09/20 11:39:05;;;;;;;7.57;3.05;;;;;;;;;;5080240;28;20059;-66
2023/09/20 11:41:32;;;;;;;9.32;2.53;;;;;;;;;;5080557;28;20387;-66
2023/09/20 11:43:58;;;;;;;6.40;2.50;;;;;;;;;;5080402;28;20023;-66
2023/09/20 11:46:27;;;;;;;8.93;2.28;;;;;;;;;;5080099;28;20139;-66
2023/09/20 11:48:57;;;;;;;5.30;2.40;;;;;;;;;;5078949;28;20028;-66
2023/09/20 11:51:23;;;;;;;8.63;2.85;;;;;;;;;;5079388;28;20031;-66
2023/09/20 11:53:51;;;;;;;9.23;2.67;;;;;;;;;;5079363;28;20118;-66
2023/09/20 11:56:24;;;;;;;6.35;2.20;;;;;;;;;;5078659;28;20031;-66
2023/09/20 11:58:50;;;;;;;6.95;2.45;;;;;;;;;;5078251;28;20038;-66
2023/09/20 12:01:22;;;;;;;6.50;3.00;;;;;;;;;;5080691;28;20035;-66
2023/09/20 12:03:51;;;;;;;8.10;3.42;;;;;;;;;;5081316;28;20052;-66
2023/09/20 12:06:17;;;;;;;8.95;3.60;;;;;;;;;;5079459;28;20138;-66
2023/09/20 12:08:43;;;;;;;8.07;3.42;;;;;;;;;;5078771;28;21241;-66
2023/09/20 12:11:10;;;;;;;8.20;3.40;;;;;;;;;;5078969;28;20020;-66
2023/09/20 12:13:36;;;;;;;7.95;3.50;;;;;;;;;;5078690;28;20032;-66
2023/09/20 12:16:02;;;;;;;8.30;3.75;;;;;;;;;;5080183;28;20691;-66
2023/09/20 12:18:28;;;;;;;8.05;3.88;;;;;;;;;;5079745;28;20418;-66
2023/09/20 12:20:55;;;;;;;11.75;4.32;;;;;;;;;;5079442;28;20059;-66
2023/09/20 12:23:21;;;;;;;8.20;3.92;;;;;;;;;;5078601;28;20441;-66
2023/09/20 12:25:47;;;;;;;7.95;3.90;;;;;;;;;;5078878;28;20106;-66
2023/09/20 12:28:13;;;;;;;7.75;4.35;;;;;;;;;;5079133;28;21149;-66
2023/09/20 12:30:42;;;;;;;10.07;4.28;;;;;;;;;;5078818;28;20070;-66
2023/09/20 12:33:08;;;;;;;6.68;4.25;;;;;;;;;;5079741;28;20036;-67
2023/09/20 12:35:40;;;;;;;9.88;4.40;;;;;;;;;;5079349;28;20046;-66
2023/09/20 12:38:06;;;;;;;7.25;3.97;;;;;;;;;;5079206;28;20039;-66
2023/09/20 12:40:32;;;;;;;6.10;3.80;;;;;;;;;;5080011;28;20116;-66
2023/09/20 12:43:02;;;;;;;7.97;3.90;;;;;;;;;;5064617;28;20040;-66
2023/09/20 12:45:28;;;;;;;11.02;3.55;;;;;;;;;;5080076;28;20122;-66
2023/09/20 12:47:55;;;;;;;7.88;3.60;;;;;;;;;;5079585;28;20032;-66
2023/09/20 12:50:22;;;;;;;6.47;3.00;;;;;;;;;;5080577;28;20163;-66
2023/09/20 12:52:48;;;;;;;7.13;3.17;;;;;;;;;;5079360;28;20162;-66
2023/09/20 12:55:15;;;;;;;5.88;3.13;;;;;;;;;;5080675;28;20027;-66
2023/09/20 12:57:41;;;;;;;6.25;3.28;;;;;;;;;;5081025;28;20111;-66
2023/09/20 13:00:16;;;;;;;4.85;2.70;;;;;;;;;;5079754;28;20582;-66
2023/09/20 13:02:45;;;;;;;10.45;3.67;;;;;;;;;;5080106;28;20031;-66
2023/09/20 13:05:12;;;;;;;5.68;3.13;;;;;;;;;;5082401;28;20734;-67
2023/09/20 13:07:39;;;;;;;10.43;2.65;;;;;;;;;;5083817;28;20052;-66
2023/09/20 13:10:13;;;;;;;6.07;1.95;;;;;;;;;;5064272;28;20755;-66
2023/09/20 13:12:40;;;;;;;6.05;2.70;;;;;;;;;;5084016;28;20036;-66
2023/09/20 13:15:08;;;;;;;8.45;2.80;;;;;;;;;;5083328;28;20031;-66
2023/09/20 13:17:34;;;;;;;6.35;2.67;;;;;;;;;;5083751;28;20127;-66
2023/09/20 13:20:00;;;;;;;7.15;2.75;;;;;;;;;;5083502;28;20036;-66
2023/09/20 13:22:26;;;;;;;8.18;3.20;;;;;;;;;;5083574;28;20053;-66
2023/09/20 13:24:52;;;;;;;8.15;2.80;;;;;;;;;;5083718;28;20849;-66
2023/09/20 13:27:22;;;;;;;6.63;2.67;;;;;;;;;;5083590;28;20116;-66
2023/09/20 13:29:48;;;;;;;6.95;3.00;;;;;;;;;;5063774;28;20379;-66
2023/09/20 13:32:14;;;;;;;6.10;2.53;;;;;;;;;;5073274;28;20031;-66
2023/09/20 13:34:40;;;;;;;10.63;3.17;;;;;;;;;;5083630;28;20048;-66
2023/09/20 13:37:08;;;;;;;6.25;2.67;;;;;;;;;;5083129;28;20101;-66
2023/09/20 13:39:42;;;;;;;10.10;3.15;;;;;;;;;;5083203;28;20042;-66
2023/09/20 13:42:08;;;;;;;9.27;3.22;;;;;;;;;;5082866;28;20036;-66
2023/09/20 13:44:36;;;;;;;6.93;3.08;;;;;;;;;;5082816;28;20127;-66
2023/09/20 13:47:06;;;;;;;6.80;2.70;;;;;;;;;;5083757;28;20036;-66
2023/09/20 13:49:32;;;;;;;6.70;3.00;;;;;;;;;;5082889;28;20094;-66
2023/09/20 13:51:58;;;;;;;13.70;3.60;;;;;;;;;;5083521;28;20103;-67
2023/09/20 13:54:25;;;;;;;6.10;2.50;;;;;;;;;;5082633;28;20081;-66
2023/09/20 13:56:51;;;;;;;8.98;3.67;;;;;;;;;;5083113;28;20035;-66
2023/09/20 13:59:19;;;;;;;8.68;2.85;;;;;;;;;;5082494;28;20035;-66
2023/09/20 14:01:45;;;;;;;9.77;3.20;;;;;;;;;;5082345;28;20843;-67
2023/09/20 14:04:12;;;;;;;6.57;2.88;;;;;;;;;;5082813;28;20043;-67
2023/09/20 14:06:38;;;;;;;8.30;3.63;;;;;;;;;;5082815;28;20036;-66
2023/09/20 14:09:05;;;;;;;8.35;3.10;;;;;;;;;;5082570;28;20047;-67
2023/09/20 14:11:33;;;;;;;10.13;3.80;;;;;;;;;;5083163;28;20025;-66
2023/09/20 14:14:00;;;;;;;8.80;2.88;;;;;;;;;;5081977;28;20550;-67
2023/09/20 14:16:27;;;;;;;10.82;3.47;;;;;;;;;;5082437;28;20043;-66
2023/09/20 14:18:54;;;;;;;11.77;3.60;;;;;;;;;;5082170;28;20058;-66
2023/09/20 14:21:21;;;;;;;8.82;2.92;;;;;;;;;;5082332;28;20107;-66
2023/09/20 14:23:47;;;;;;;6.57;3.08;;;;;;;;;;5082669;28;20047;-66
2023/09/20 14:26:14;;;;;;;7.05;3.10;;;;;;;;;;5081994;28;20040;-66
2023/09/20 14:28:41;;;;;;;7.32;2.88;;;;;;;;;;5082943;28;20150;-66
2023/09/20 14:31:15;;;;;;;8.68;3.40;;;;;;;;;;5082527;28;20716;-66
2023/09/20 14:33:41;;;;;;;7.78;3.10;;;;;;;;;;5081696;28;20031;-66
2023/09/20 14:36:11;;;;;;;6.13;2.33;;;;;;;;;;5082301;28;20439;-66
2023/09/20 14:38:37;;;;;;;5.50;2.80;;;;;;;;;;5082013;28;20040;-66
2023/09/20 14:41:05;;;;;;;7.25;2.80;;;;;;;;;;5080770;28;20036;-66
2023/09/20 14:43:31;;;;;;;7.85;2.85;;;;;;;;;;5081740;28;20040;-66
2023/09/20 14:45:57;;;;;;;11.90;3.08;;;;;;;;;;5080710;28;20032;-66
2023/09/20 14:48:24;;;;;;;6.65;2.92;;;;;;;;;;5080244;28;20113;-66
2023/09/20 14:50:50;;;;;;;10.68;3.05;;;;;;;;;;5081159;28;20040;-66
2023/09/20 14:53:18;;;;;;;5.70;2.75;;;;;;;;;;5081378;28;20035;-66
2023/09/20 14:55:45;;;;;;;4.93;2.42;;;;;;;;;;5081119;28;20755;-66
2023/09/20 14:58:11;;;;;;;7.20;3.08;;;;;;;;;;5081802;28;20044;-66
2023/09/20 15:00:38;;;;;;;10.43;2.40;;;;;;;;;;5081126;28;20039;-66
2023/09/20 15:03:06;;;;;;;7.60;3.10;;;;;;;;;;5080503;28;20036;-66
2023/09/20 15:05:36;;;;;;;9.35;2.85;;;;;;;;;;5081198;28;20036;-66
2023/09/20 15:08:02;;;;;;;6.68;2.72;;;;;;;;;;5081089;28;20447;-66
2023/09/20 15:10:28;;;;;;;6.75;3.08;;;;;;;;;;5081034;28;20023;-67
2023/09/20 15:12:57;;;;;;;5.95;3.03;;;;;;;;;;5081441;28;21909;-66
2023/09/20 15:15:26;;;;;;;7.50;3.38;;;;;;;;;;5081757;28;20036;-66
2023/09/20 15:17:52;;;;;;;8.60;3.10;;;;;;;;;;5081207;28;20521;-66